createdAt,value
2023-03-19T00:02:20.032Z,151352.00
2023-03-19T00:04:48.203Z,151336.81
2023-03-19T00:07:15.208Z,151386.19
2023-03-19T00:09:41.500Z,151353.28
2023-03-19T00:12:08.415Z,151354.56
2023-03-19T00:14:34.840Z,151354.56
2023-03-19T00:17:01.130Z,151352.00
2023-03-19T00:19:27.153Z,151343.13
2023-03-19T00:21:53.343Z,151348.16
2023-03-19T00:24:19.885Z,151374.81
2023-03-19T00:26:45.643Z,151369.78
2023-03-19T00:29:12.256Z,151396.34
2023-03-19T00:31:39.901Z,151383.66
2023-03-19T00:34:05.797Z,151365.94
2023-03-19T00:36:32.140Z,151379.88
2023-03-19T00:38:58.108Z,151397.59
2023-03-19T00:41:24.370Z,151395.06
2023-03-19T00:43:55.019Z,151388.75
2023-03-19T00:46:21.102Z,151411.53
2023-03-19T00:48:47.035Z,151390.00
2023-03-19T00:51:12.898Z,151416.56
2023-03-19T00:53:41.383Z,151417.84
2023-03-19T00:56:08.772Z,151400.13
2023-03-19T00:58:34.857Z,151425.47
2023-03-19T01:01:01.260Z,151425.47
2023-03-19T01:03:27.788Z,151415.31
2023-03-19T01:05:53.556Z,151439.34
2023-03-19T01:08:19.327Z,151422.88
2023-03-19T01:10:45.767Z,151428.00
2023-03-19T01:13:12.258Z,151411.53
2023-03-19T01:15:42.796Z,151409.00
2023-03-19T01:18:11.050Z,151409.00
2023-03-19T01:20:38.576Z,151367.19
2023-03-19T01:23:05.861Z,151359.63
2023-03-19T01:25:32.281Z,151391.28
2023-03-19T01:27:58.100Z,151390.00
2023-03-19T01:30:24.025Z,151329.19
2023-03-19T01:32:49.880Z,151322.88
2023-03-19T01:35:16.037Z,151288.72
2023-03-19T01:37:42.091Z,151300.13
2023-03-19T01:40:13.648Z,151298.84
2023-03-19T01:43:14.543Z,151308.94
2023-03-19T01:45:42.049Z,151311.47
2023-03-19T01:48:18.656Z,151311.47
2023-03-19T01:50:45.541Z,151300.13
2023-03-19T01:53:15.043Z,151296.28
2023-03-19T01:55:41.584Z,151292.50
2023-03-19T01:58:08.900Z,151296.28
2023-03-19T02:00:37.380Z,151293.75
2023-03-19T02:03:03.391Z,151281.13
2023-03-19T02:05:30.042Z,151279.88
2023-03-19T02:08:01.318Z,151265.94
2023-03-19T02:10:28.270Z,151229.25
2023-03-19T02:12:54.159Z,151230.50
2023-03-19T02:15:20.427Z,151233.03
2023-03-19T02:17:47.294Z,151233.03
2023-03-19T02:20:34.892Z,151234.31
2023-03-19T02:23:06.473Z,151228.00
2023-03-19T02:25:56.087Z,151200.13
2023-03-19T02:28:23.333Z,151217.84
2023-03-19T02:30:49.436Z,151225.47
2023-03-19T02:33:18.156Z,151210.28
2023-03-19T02:35:46.481Z,151195.09
2023-03-19T02:38:13.816Z,151206.44
2023-03-19T02:41:07.632Z,151200.13
2023-03-19T02:43:37.921Z,151200.13
2023-03-19T02:46:07.274Z,151197.63
2023-03-19T02:48:34.213Z,151190.03
2023-03-19T02:51:00.451Z,151206.44
2023-03-19T02:53:26.429Z,151201.41
2023-03-19T02:55:52.628Z,151221.63
2023-03-19T02:58:18.678Z,151222.91
2023-03-19T03:00:44.551Z,151173.59
2023-03-19T03:03:10.886Z,151181.16
2023-03-19T03:05:36.812Z,151160.94
2023-03-19T03:08:04.071Z,151179.91
2023-03-19T03:10:31.286Z,151169.75
2023-03-19T03:12:57.815Z,151171.03
2023-03-19T03:15:31.336Z,151163.47
2023-03-19T03:18:17.023Z,151195.09
2023-03-19T03:20:47.363Z,151154.63
2023-03-19T03:23:13.277Z,151126.78
2023-03-19T03:25:39.086Z,151168.50
2023-03-19T03:28:04.904Z,151154.63
2023-03-19T03:30:30.783Z,151154.63
2023-03-19T03:32:56.686Z,151172.34
2023-03-19T03:35:22.512Z,151158.41
2023-03-19T03:37:49.940Z,151149.53
2023-03-19T03:40:16.538Z,151153.38
2023-03-19T03:42:43.473Z,151154.63
2023-03-19T03:45:10.300Z,151147.00
2023-03-19T03:47:36.521Z,151150.78
2023-03-19T03:50:04.462Z,151154.63
2023-03-19T03:52:33.318Z,151135.66
2023-03-19T03:55:00.163Z,151145.75
2023-03-19T03:57:26.833Z,151155.88
2023-03-19T03:59:53.487Z,151144.47
2023-03-19T04:02:20.162Z,151136.91
2023-03-19T04:04:47.812Z,151143.22
2023-03-19T04:07:13.782Z,151141.97
2023-03-19T04:09:39.745Z,151164.72
2023-03-19T04:12:05.759Z,151155.88
2023-03-19T04:14:31.554Z,151138.19
2023-03-19T04:16:57.469Z,151147.00
2023-03-19T04:19:23.353Z,151143.22
2023-03-19T04:21:49.223Z,151167.25
2023-03-19T04:24:15.082Z,151165.97
2023-03-19T04:26:40.926Z,151172.34
2023-03-19T04:29:08.085Z,151173.59
2023-03-19T04:31:34.300Z,151147.00
2023-03-19T04:34:00.156Z,151160.94
2023-03-19T04:36:26.050Z,151173.59
2023-03-19T04:38:51.951Z,151167.25
2023-03-19T04:41:17.840Z,151193.84
2023-03-19T04:43:43.592Z,151174.84
2023-03-19T04:46:11.188Z,151169.75
2023-03-19T04:48:38.714Z,151177.38
2023-03-19T04:51:07.802Z,151176.13
2023-03-19T04:53:35.540Z,151164.72
2023-03-19T04:56:01.917Z,151192.56
2023-03-19T04:58:27.857Z,151191.31
2023-03-19T05:00:53.616Z,151168.50
2023-03-19T05:03:19.827Z,151149.53
2023-03-19T05:05:45.704Z,151155.88
2023-03-19T05:08:12.885Z,151157.16
2023-03-19T05:10:39.353Z,151179.91
2023-03-19T05:13:06.406Z,151192.56
2023-03-19T05:15:32.593Z,151193.84
2023-03-19T05:17:58.739Z,151197.63
2023-03-19T05:20:24.622Z,151192.56
2023-03-19T05:22:52.207Z,151149.53
2023-03-19T05:25:18.788Z,151141.97
2023-03-19T05:27:45.017Z,151135.66
2023-03-19T05:30:11.617Z,151116.63
2023-03-19T05:32:37.915Z,151101.50
2023-03-19T05:35:04.812Z,151086.31
2023-03-19T05:37:31.108Z,151074.91
2023-03-19T05:39:56.885Z,151078.69
2023-03-19T05:42:22.714Z,151091.38
2023-03-19T05:44:48.571Z,151121.72
2023-03-19T05:47:14.463Z,151083.78
2023-03-19T05:49:40.582Z,151074.91
2023-03-19T05:52:07.030Z,151082.53
2023-03-19T05:54:33.255Z,151092.63
2023-03-19T05:56:59.066Z,151038.25
2023-03-19T05:59:25.157Z,151073.66
2023-03-19T06:01:50.949Z,151098.94
2023-03-19T06:04:16.859Z,151076.19
2023-03-19T06:06:42.745Z,151088.84
2023-03-19T06:09:08.482Z,151058.47
2023-03-19T06:11:34.456Z,151076.19
2023-03-19T06:14:00.457Z,151048.38
2023-03-19T06:16:26.386Z,151067.34
2023-03-19T06:18:52.316Z,151081.28
2023-03-19T06:21:18.149Z,151059.75
2023-03-19T06:23:43.974Z,151023.06
2023-03-19T06:26:09.887Z,151025.59
2023-03-19T06:28:35.825Z,151063.56
2023-03-19T06:31:01.904Z,151053.44
2023-03-19T06:33:31.338Z,151037.00
2023-03-19T06:35:57.775Z,151026.84
2023-03-19T06:38:23.734Z,151059.75
2023-03-19T06:40:49.599Z,151069.88
2023-03-19T06:43:15.348Z,151063.56
2023-03-19T06:45:41.585Z,151067.34
2023-03-19T06:48:07.546Z,151038.25
2023-03-19T06:50:33.522Z,151068.63
2023-03-19T06:52:59.806Z,151038.25
2023-03-19T06:55:25.694Z,151037.00
2023-03-19T06:57:51.538Z,151035.72
2023-03-19T07:00:17.936Z,151045.88
2023-03-19T07:02:44.504Z,151062.25
2023-03-19T07:05:10.835Z,151105.28
2023-03-19T07:07:36.692Z,151124.25
2023-03-19T07:10:03.192Z,151102.75
2023-03-19T07:12:29.051Z,151120.47
2023-03-19T07:14:55.673Z,151081.28
2023-03-19T07:17:22.623Z,151117.94
2023-03-19T07:19:48.461Z,151101.50
2023-03-19T07:22:14.561Z,151110.34
2023-03-19T07:24:40.382Z,151143.22
2023-03-19T07:27:06.226Z,151134.34
2023-03-19T07:29:32.113Z,151092.63
2023-03-19T07:31:58.073Z,151078.69
2023-03-19T07:34:24.157Z,151074.91
2023-03-19T07:36:50.549Z,151109.06
2023-03-19T07:39:16.628Z,151126.78
2023-03-19T07:41:44.171Z,151168.50
2023-03-19T07:44:10.590Z,151158.41
2023-03-19T07:46:36.693Z,151192.56
2023-03-19T07:49:02.590Z,151197.63
2023-03-19T07:51:28.376Z,151200.13
2023-03-19T07:53:54.536Z,151150.78
2023-03-19T07:56:20.673Z,151147.00
2023-03-19T07:58:46.574Z,151167.25
2023-03-19T08:01:12.436Z,151205.19
2023-03-19T08:03:38.865Z,151241.88
2023-03-19T08:06:04.974Z,151241.88
2023-03-19T08:08:30.969Z,151252.00
2023-03-19T08:10:56.981Z,151265.94
2023-03-19T08:13:22.795Z,151235.56
2023-03-19T08:15:50.538Z,151255.81
2023-03-19T08:18:16.407Z,151306.41
2023-03-19T08:20:44.160Z,151308.94
2023-03-19T08:23:11.300Z,151301.38
2023-03-19T08:25:37.468Z,151288.72
2023-03-19T08:28:03.456Z,151288.72
2023-03-19T08:30:29.337Z,151245.69
2023-03-19T08:32:55.534Z,151195.09
2023-03-19T08:35:21.580Z,151134.34
2023-03-19T08:37:47.403Z,151163.47
2023-03-19T08:40:13.432Z,151153.38
2023-03-19T08:42:44.245Z,151172.34
2023-03-19T08:45:12.501Z,151181.16
2023-03-19T08:47:39.154Z,151211.53
2023-03-19T08:50:06.022Z,151210.28
2023-03-19T08:52:32.028Z,151228.00
2023-03-19T08:54:57.945Z,151235.56
2023-03-19T08:57:23.823Z,151238.09
2023-03-19T08:59:51.462Z,151250.75
2023-03-19T09:02:20.489Z,151273.50
2023-03-19T09:04:46.421Z,151308.94
2023-03-19T09:07:14.969Z,151343.13
2023-03-19T09:09:44.594Z,151335.53
2023-03-19T09:12:13.350Z,151382.41
2023-03-19T09:14:39.668Z,151436.81
2023-03-19T09:17:06.230Z,151516.63
2023-03-19T09:19:33.031Z,151560.91
2023-03-19T09:21:59.443Z,151647.06
2023-03-19T09:24:25.983Z,151739.53
2023-03-19T09:26:52.463Z,151643.25
2023-03-19T09:29:18.712Z,151680.00
2023-03-19T09:31:44.658Z,151682.53
2023-03-19T09:34:10.593Z,151672.38
2023-03-19T09:36:37.244Z,151661.00
2023-03-19T09:39:05.011Z,151652.09
2023-03-19T09:41:30.744Z,151738.25
2023-03-19T09:44:19.528Z,151754.78
2023-03-19T09:46:55.461Z,151726.84
2023-03-19T09:49:27.954Z,151700.25
2023-03-19T09:52:18.433Z,151785.22
2023-03-19T09:54:48.359Z,151654.63
2023-03-19T09:57:15.163Z,151721.78
2023-03-19T09:59:41.341Z,151876.47
2023-03-19T10:02:19.131Z,151854.88
2023-03-19T10:05:10.594Z,151843.50
2023-03-19T10:08:01.923Z,151743.31
2023-03-19T10:10:47.751Z,151638.16
2023-03-19T10:13:19.605Z,151601.44
2023-03-19T10:15:46.475Z,151598.91
2023-03-19T10:18:23.756Z,151540.66
2023-03-19T10:21:08.977Z,151529.25
2023-03-19T10:24:02.725Z,151546.97
2023-03-19T10:26:34.815Z,151557.13
2023-03-19T10:29:10.504Z,151588.78
2023-03-19T10:31:58.765Z,151633.09
2023-03-19T10:34:37.674Z,151829.53
2023-03-19T10:37:12.754Z,151970.25
2023-03-19T10:39:41.568Z,152066.63
2023-03-19T10:42:16.273Z,151994.34
2023-03-19T10:44:50.180Z,151846.03
2023-03-19T10:47:19.516Z,151767.47
2023-03-19T10:49:46.966Z,151720.53
2023-03-19T10:52:31.583Z,151825.75
2023-03-19T10:55:02.613Z,151834.59
2023-03-19T10:57:30.955Z,151876.47
2023-03-19T11:00:03.433Z,151843.50
2023-03-19T11:02:31.649Z,151764.91
2023-03-19T11:05:21.435Z,151805.47
2023-03-19T11:07:56.239Z,151813.06
2023-03-19T11:10:24.972Z,151918.28
2023-03-19T11:13:05.322Z,151920.81
2023-03-19T11:15:38.559Z,151825.75
2023-03-19T11:18:18.101Z,151725.56
2023-03-19T11:20:57.486Z,151778.84
2023-03-19T11:23:27.368Z,151761.09
2023-03-19T11:25:54.523Z,151729.41
2023-03-19T11:28:26.254Z,151645.78
2023-03-19T11:31:05.803Z,151680.00
2023-03-19T11:33:44.514Z,151696.47
2023-03-19T11:36:38.738Z,151673.63
2023-03-19T11:39:22.741Z,151649.56
2023-03-19T11:42:11.123Z,151612.84
2023-03-19T11:45:04.123Z,151657.16
2023-03-19T11:47:33.492Z,151658.47
2023-03-19T11:50:17.573Z,151678.72
2023-03-19T11:53:04.941Z,151659.72
2023-03-19T11:55:36.837Z,151683.78
2023-03-19T11:58:34.849Z,151583.69
2023-03-19T12:01:28.787Z,151662.25
2023-03-19T12:04:17.416Z,151738.25
2023-03-19T12:07:18.417Z,151791.53
2023-03-19T12:10:29.432Z,151758.56
2023-03-19T12:12:58.333Z,151758.56
2023-03-19T12:15:26.900Z,151681.25
2023-03-19T12:17:57.839Z,151726.84
2023-03-19T12:20:37.596Z,151820.69
2023-03-19T12:23:18.687Z,151849.81
2023-03-19T12:26:04.087Z,151761.09
2023-03-19T12:28:35.257Z,151721.78
2023-03-19T12:31:27.146Z,151745.84
2023-03-19T12:34:26.609Z,151762.38
2023-03-19T12:37:05.661Z,151877.72
2023-03-19T12:39:36.748Z,151937.28
2023-03-19T12:42:06.891Z,151785.22
2023-03-19T12:44:38.318Z,151827.00
2023-03-19T12:47:14.308Z,151835.88
2023-03-19T12:50:00.817Z,151896.75
2023-03-19T12:52:37.752Z,152311.53
2023-03-19T12:55:20.271Z,152677.25
2023-03-19T12:57:50.626Z,152922.56
2023-03-19T13:01:02.004Z,152955.59
2023-03-19T13:03:50.658Z,152659.47
2023-03-19T13:06:24.761Z,152480.38
2023-03-19T13:09:04.615Z,152923.84
2023-03-19T13:11:38.970Z,153099.31
2023-03-19T13:14:40.375Z,152873.00
2023-03-19T13:17:13.472Z,153444.19
2023-03-19T13:19:50.407Z,153441.63
2023-03-19T13:22:20.493Z,153142.59
2023-03-19T13:24:48.888Z,153351.28
2023-03-19T13:27:32.462Z,153744.81
2023-03-19T13:30:11.229Z,153476.06
2023-03-19T13:32:47.625Z,153541.00
2023-03-19T13:35:41.392Z,153507.91
2023-03-19T13:38:31.134Z,152920.00
2023-03-19T13:40:58.737Z,152706.53
2023-03-19T13:43:28.617Z,152644.22
2023-03-19T13:46:04.066Z,152667.06
2023-03-19T13:48:35.104Z,152684.84
2023-03-19T13:51:04.115Z,152621.34
2023-03-19T13:53:38.783Z,152420.72
2023-03-19T13:56:28.627Z,152344.53
2023-03-19T13:59:24.311Z,152366.09
2023-03-19T14:01:50.259Z,152422.00
2023-03-19T14:04:42.426Z,152343.28
2023-03-19T14:07:14.377Z,152251.84
2023-03-19T14:09:53.063Z,152295.03
2023-03-19T14:12:19.486Z,152278.53
2023-03-19T14:14:48.115Z,152210.00
2023-03-19T14:17:52.883Z,152278.53
2023-03-19T14:20:24.051Z,152391.47
2023-03-19T14:23:08.849Z,152321.66
2023-03-19T14:25:56.388Z,152295.03
2023-03-19T14:28:35.652Z,152127.56
2023-03-19T14:31:03.203Z,152125.00
2023-03-19T14:33:36.871Z,152003.22
2023-03-19T14:36:05.104Z,152021.00
2023-03-19T14:39:02.337Z,152116.13
2023-03-19T14:41:34.470Z,152109.81
2023-03-19T14:44:06.186Z,152088.16
2023-03-19T14:46:47.378Z,152099.66
2023-03-19T14:49:34.206Z,152090.75
2023-03-19T14:52:05.919Z,152050.13
2023-03-19T14:55:08.781Z,152053.97
2023-03-19T14:57:35.133Z,152045.06
2023-03-19T15:00:05.919Z,151986.75
2023-03-19T15:02:34.975Z,151963.94
2023-03-19T15:05:06.456Z,151967.72
2023-03-19T15:07:39.426Z,151970.25
2023-03-19T15:10:13.204Z,151933.50
2023-03-19T15:13:06.448Z,151979.13
2023-03-19T15:15:50.789Z,151990.53
2023-03-19T15:18:19.950Z,151958.84
2023-03-19T15:20:53.756Z,151957.56
2023-03-19T15:23:27.326Z,151952.50
2023-03-19T15:26:00.641Z,152000.72
2023-03-19T15:28:44.652Z,151972.78
2023-03-19T15:31:30.421Z,151977.84
2023-03-19T15:33:57.453Z,151833.34
2023-03-19T15:36:30.849Z,151781.38
2023-03-19T15:39:04.545Z,151706.56
2023-03-19T15:41:34.347Z,151690.09
2023-03-19T15:44:03.691Z,151716.72
2023-03-19T15:46:35.092Z,151709.09
2023-03-19T15:49:27.691Z,151697.72
2023-03-19T15:51:58.927Z,151686.31
2023-03-19T15:54:25.641Z,151590.06
2023-03-19T15:56:51.965Z,151631.84
2023-03-19T15:59:21.306Z,151620.44
2023-03-19T16:01:47.983Z,151623.00
2023-03-19T16:04:20.273Z,151652.09
2023-03-19T16:06:48.864Z,151686.31
2023-03-19T16:09:21.010Z,151730.69
2023-03-19T16:11:46.917Z,151733.22
2023-03-19T16:14:25.147Z,151753.53
2023-03-19T16:16:52.718Z,151719.25
2023-03-19T16:19:36.593Z,151723.06
2023-03-19T16:22:11.752Z,151715.47
2023-03-19T16:24:41.772Z,151686.31
2023-03-19T16:27:13.026Z,151673.63
2023-03-19T16:29:44.970Z,151678.72
2023-03-19T16:32:10.703Z,151657.16
2023-03-19T16:34:47.488Z,151666.03
2023-03-19T16:37:44.525Z,151650.84
2023-03-19T16:40:13.169Z,151604.00
2023-03-19T16:42:43.057Z,151590.06
2023-03-19T16:45:17.680Z,151521.66
2023-03-19T16:47:54.536Z,151503.94
2023-03-19T16:50:24.793Z,151473.53
2023-03-19T16:53:00.152Z,151446.97
2023-03-19T16:55:36.296Z,151415.31
2023-03-19T16:58:17.627Z,151390.00
2023-03-19T17:00:45.185Z,151419.09
2023-03-19T17:03:13.417Z,151406.47
2023-03-19T17:05:39.289Z,151312.72
2023-03-19T17:08:05.207Z,151233.03
2023-03-19T17:10:32.320Z,151259.59
2023-03-19T17:13:00.139Z,151248.22
2023-03-19T17:15:39.127Z,151224.16
2023-03-19T17:18:32.926Z,151252.00
2023-03-19T17:21:20.796Z,151207.75
2023-03-19T17:23:46.856Z,151233.03
2023-03-19T17:26:19.532Z,151231.78
2023-03-19T17:28:46.170Z,151248.22
2023-03-19T17:31:32.763Z,151246.97
2023-03-19T17:34:10.658Z,151233.03
2023-03-19T17:36:36.587Z,151300.13
2023-03-19T17:39:03.627Z,151226.72
2023-03-19T17:41:32.071Z,151212.81
2023-03-19T17:43:58.132Z,151165.97
2023-03-19T17:46:27.935Z,151159.66
2023-03-19T17:48:54.660Z,151140.69
2023-03-19T17:51:22.914Z,151150.78
2023-03-19T17:53:52.124Z,151164.72
2023-03-19T17:56:20.482Z,151145.75
2023-03-19T17:58:48.015Z,151147.00
2023-03-19T18:01:26.440Z,151133.09
2023-03-19T18:03:54.693Z,151121.72
2023-03-19T18:06:23.569Z,151149.53
2023-03-19T18:08:50.215Z,151167.25
2023-03-19T18:11:16.181Z,151159.66
2023-03-19T18:13:43.009Z,151150.78
2023-03-19T18:16:19.595Z,151130.56
2023-03-19T18:18:45.661Z,151147.00
2023-03-19T18:21:15.149Z,151163.47
2023-03-19T18:23:42.234Z,151177.38
2023-03-19T18:26:08.721Z,151193.84
2023-03-19T18:28:35.020Z,151174.84
2023-03-19T18:31:01.135Z,151203.91
2023-03-19T18:33:30.452Z,151200.13
2023-03-19T18:35:57.216Z,151167.25
2023-03-19T18:38:25.837Z,151138.19
2023-03-19T18:40:53.875Z,151129.31
2023-03-19T18:43:19.830Z,151133.09
2023-03-19T18:45:48.636Z,151182.44
2023-03-19T18:48:23.118Z,151177.38
2023-03-19T18:50:49.928Z,151202.66
2023-03-19T18:53:16.444Z,151201.41
2023-03-19T18:55:43.068Z,151209.03
2023-03-19T18:58:16.449Z,151230.50
2023-03-19T19:00:42.334Z,151209.03
2023-03-19T19:03:12.850Z,151197.63
2023-03-19T19:05:38.988Z,151200.13
2023-03-19T19:08:12.782Z,151186.22
2023-03-19T19:10:41.281Z,151182.44
2023-03-19T19:13:15.749Z,151181.16
2023-03-19T19:15:41.794Z,151181.16
2023-03-19T19:18:23.283Z,151169.75
2023-03-19T19:20:51.761Z,151200.13
2023-03-19T19:23:19.189Z,151197.63
2023-03-19T19:25:49.117Z,151244.44
2023-03-19T19:28:27.225Z,151209.03
2023-03-19T19:30:55.349Z,151219.09
2023-03-19T19:33:23.900Z,151195.09
2023-03-19T19:35:51.363Z,151212.81
2023-03-19T19:38:17.902Z,151193.84
2023-03-19T19:40:46.862Z,151177.38
2023-03-19T19:43:19.280Z,151205.19
2023-03-19T19:45:47.860Z,151191.31
2023-03-19T19:48:20.127Z,151182.44
2023-03-19T19:50:46.994Z,151188.75
2023-03-19T19:53:14.456Z,151191.31
2023-03-19T19:55:41.249Z,151176.13
2023-03-19T19:58:20.599Z,151164.72
2023-03-19T20:00:56.697Z,151184.94
2023-03-19T20:03:30.620Z,151179.91
2023-03-19T20:05:57.999Z,151182.44
2023-03-19T20:08:26.270Z,151153.38
2023-03-19T20:10:52.622Z,151153.38
2023-03-19T20:13:33.333Z,151144.47
2023-03-19T20:16:00.790Z,151144.47
2023-03-19T20:18:30.720Z,151130.56
2023-03-19T20:20:57.411Z,151136.91
2023-03-19T20:23:23.205Z,151154.63
2023-03-19T20:25:50.408Z,151149.53
2023-03-19T20:28:29.759Z,151172.34
2023-03-19T20:30:55.824Z,151177.38
2023-03-19T20:33:22.049Z,151163.47
2023-03-19T20:35:48.494Z,151163.47
2023-03-19T20:38:15.153Z,151160.94
2023-03-19T20:40:48.728Z,151165.97
2023-03-19T20:43:28.072Z,151164.72
2023-03-19T20:45:56.360Z,151152.06
2023-03-19T20:48:23.406Z,151172.34
2023-03-19T20:50:49.905Z,151182.44
2023-03-19T20:53:16.419Z,151139.44
2023-03-19T20:55:44.006Z,151149.53
2023-03-19T20:58:26.860Z,151167.25
2023-03-19T21:00:54.373Z,151125.50
2023-03-19T21:03:23.276Z,151106.53
2023-03-19T21:06:01.314Z,151135.66
2023-03-19T21:08:31.601Z,151129.31
2023-03-19T21:10:57.892Z,151144.47
2023-03-19T21:13:23.796Z,151133.09
2023-03-19T21:15:49.836Z,151160.94
2023-03-19T21:18:16.313Z,151126.78
2023-03-19T21:20:45.504Z,151121.72
2023-03-19T21:23:30.881Z,151134.34
2023-03-19T21:26:08.265Z,151101.50
2023-03-19T21:28:36.416Z,151082.53
2023-03-19T21:31:02.681Z,151072.41
2023-03-19T21:33:32.148Z,151054.69
2023-03-19T21:35:59.659Z,151068.63
2023-03-19T21:38:26.137Z,151044.56
2023-03-19T21:40:57.216Z,151061.00
2023-03-19T21:43:31.724Z,151039.50
2023-03-19T21:45:58.179Z,151037.00
2023-03-19T21:48:30.063Z,151024.34
2023-03-19T21:50:57.103Z,151030.69
2023-03-19T21:53:23.928Z,151021.81
2023-03-19T21:55:51.928Z,151038.25
2023-03-19T21:58:24.748Z,151061.00
2023-03-19T22:00:50.736Z,151073.66
2023-03-19T22:03:19.102Z,151066.09
2023-03-19T22:05:46.075Z,151076.19
2023-03-19T22:08:14.157Z,151068.63
2023-03-19T22:10:42.174Z,151097.66
2023-03-19T22:13:18.528Z,151096.41
2023-03-19T22:15:44.756Z,151085.06
2023-03-19T22:18:14.990Z,151123.00
2023-03-19T22:20:41.973Z,151104.03
2023-03-19T22:23:08.200Z,151115.38
2023-03-19T22:25:36.258Z,151131.81
2023-03-19T22:28:14.913Z,151111.59
2023-03-19T22:30:41.561Z,151105.28
2023-03-19T22:33:22.195Z,151121.72
2023-03-19T22:35:49.335Z,151104.03
2023-03-19T22:38:19.580Z,151085.06
2023-03-19T22:40:48.616Z,151076.19
2023-03-19T22:43:29.908Z,151091.38
2023-03-19T22:46:00.176Z,151104.03
2023-03-19T22:48:27.334Z,151092.63
2023-03-19T22:50:53.228Z,151090.09
2023-03-19T22:53:21.870Z,151101.50
2023-03-19T22:55:47.748Z,151102.75
2023-03-19T22:58:13.540Z,151105.28
2023-03-19T23:00:39.493Z,151124.25
2023-03-19T23:03:08.489Z,151125.50
2023-03-19T23:05:36.818Z,151126.78
2023-03-19T23:08:06.213Z,151119.22
2023-03-19T23:10:33.182Z,151112.84
2023-03-19T23:12:59.011Z,151115.38
2023-03-19T23:15:27.051Z,151098.94
2023-03-19T23:17:57.157Z,151098.94
2023-03-19T23:20:25.260Z,151090.09
2023-03-19T23:22:52.042Z,151098.94
2023-03-19T23:25:21.626Z,151087.59
2023-03-19T23:27:47.848Z,151097.66
2023-03-19T23:30:30.434Z,151117.94
2023-03-19T23:32:58.238Z,151109.06
2023-03-19T23:35:25.928Z,151093.88
2023-03-19T23:37:54.244Z,151074.91
2023-03-19T23:40:22.326Z,151055.94
2023-03-19T23:42:53.641Z,151074.91
2023-03-19T23:45:34.056Z,151050.91
2023-03-19T23:48:03.535Z,151067.34
2023-03-19T23:50:30.634Z,151059.75
2023-03-19T23:52:56.684Z,151045.88
2023-03-19T23:55:23.416Z,151067.34
2023-03-19T23:57:49.812Z,151079.97
